createdAt,value
2023-06-06T00:02:24.321Z,3.87
2023-06-06T00:04:51.638Z,4.53
2023-06-06T00:07:18.552Z,4.60
2023-06-06T00:09:45.306Z,4.87
2023-06-06T00:12:14.178Z,4.43
2023-06-06T00:14:42.891Z,4.67
2023-06-06T00:17:12.269Z,5.20
2023-06-06T00:19:43.555Z,4.70
2023-06-06T00:22:10.807Z,4.30
2023-06-06T00:24:37.612Z,5.00
2023-06-06T00:27:04.562Z,5.07
2023-06-06T00:29:31.433Z,5.43
2023-06-06T00:32:00.784Z,5.33
2023-06-06T00:34:27.741Z,5.00
2023-06-06T00:36:56.729Z,5.50
2023-06-06T00:39:27.990Z,6.13
2023-06-06T00:41:59.684Z,5.90
2023-06-06T00:44:26.674Z,5.60
2023-06-06T00:46:53.864Z,5.80
2023-06-06T00:49:20.682Z,5.70
2023-06-06T00:51:49.953Z,6.40
2023-06-06T00:54:17.307Z,6.03
2023-06-06T00:56:45.091Z,6.00
2023-06-06T00:59:15.286Z,5.40
2023-06-06T01:01:44.889Z,5.90
2023-06-06T01:04:13.718Z,5.43
2023-06-06T01:06:40.604Z,5.33
2023-06-06T01:09:08.886Z,5.60
2023-06-06T01:11:41.411Z,5.37
2023-06-06T01:14:37.557Z,5.57
2023-06-06T01:17:08.776Z,5.57
2023-06-06T01:19:39.170Z,4.93
2023-06-06T01:22:06.484Z,5.43
2023-06-06T01:24:38.362Z,5.57
2023-06-06T01:27:06.051Z,5.70
2023-06-06T01:29:33.108Z,5.73
2023-06-06T01:32:09.237Z,6.07
2023-06-06T01:34:45.715Z,5.83
2023-06-06T01:37:21.572Z,5.57
2023-06-06T01:39:51.143Z,5.80
2023-06-06T01:42:18.800Z,5.27
2023-06-06T01:44:47.990Z,5.33
2023-06-06T01:47:15.257Z,5.27
2023-06-06T01:49:44.513Z,4.77
2023-06-06T01:52:12.013Z,5.40
2023-06-06T01:54:41.894Z,4.50
2023-06-06T01:57:08.946Z,5.10
2023-06-06T01:59:37.616Z,4.63
2023-06-06T02:02:07.472Z,4.93
2023-06-06T02:04:37.007Z,4.97
2023-06-06T02:07:06.500Z,4.93
2023-06-06T02:09:33.779Z,4.47
2023-06-06T02:12:00.608Z,4.90
2023-06-06T02:14:30.070Z,5.50
2023-06-06T02:16:59.424Z,5.17
2023-06-06T02:19:28.579Z,4.30
2023-06-06T02:21:57.887Z,4.83
2023-06-06T02:24:27.978Z,5.00
2023-06-06T02:26:58.288Z,5.33
2023-06-06T02:29:25.548Z,5.93
2023-06-06T02:31:53.727Z,5.33
2023-06-06T02:34:20.612Z,5.27
2023-06-06T02:36:49.731Z,4.23
2023-06-06T02:39:16.752Z,4.30
2023-06-06T02:41:43.648Z,4.80
2023-06-06T02:44:12.821Z,4.83
2023-06-06T02:46:39.789Z,4.23
2023-06-06T02:49:06.760Z,4.30
2023-06-06T02:51:33.617Z,4.73
2023-06-06T02:54:00.463Z,4.83
2023-06-06T02:56:27.258Z,4.43
2023-06-06T02:58:54.517Z,4.20
2023-06-06T03:01:24.178Z,4.00
2023-06-06T03:03:51.087Z,4.17
2023-06-06T03:06:21.879Z,4.17
2023-06-06T03:08:56.305Z,4.43
2023-06-06T03:11:23.275Z,4.50
2023-06-06T03:13:52.389Z,4.60
2023-06-06T03:16:19.257Z,4.00
2023-06-06T03:18:49.045Z,4.40
2023-06-06T03:21:18.470Z,4.40
2023-06-06T03:23:48.199Z,4.60
2023-06-06T03:26:17.582Z,4.30
2023-06-06T03:28:46.838Z,4.20
2023-06-06T03:31:14.606Z,4.80
2023-06-06T03:33:44.223Z,4.50
2023-06-06T03:36:16.017Z,4.70
2023-06-06T03:38:42.777Z,4.60
2023-06-06T03:41:15.398Z,4.73
2023-06-06T03:43:45.303Z,4.67
2023-06-06T03:46:14.536Z,4.17
2023-06-06T03:48:44.305Z,4.43
2023-06-06T03:51:11.486Z,4.63
2023-06-06T03:53:40.770Z,4.40
2023-06-06T03:56:07.910Z,4.50
2023-06-06T03:58:34.815Z,4.43
2023-06-06T04:01:02.477Z,4.10
2023-06-06T04:03:37.743Z,4.43
2023-06-06T04:06:06.439Z,4.80
2023-06-06T04:08:42.012Z,4.13
2023-06-06T04:11:09.657Z,5.07
2023-06-06T04:13:38.801Z,4.23
2023-06-06T04:16:06.648Z,4.30
2023-06-06T04:18:37.797Z,3.67
2023-06-06T04:21:06.929Z,4.40
2023-06-06T04:23:34.189Z,4.53
2023-06-06T04:26:03.969Z,4.83
2023-06-06T04:28:33.141Z,4.30
2023-06-06T04:31:01.241Z,4.53
2023-06-06T04:33:31.115Z,4.40
2023-06-06T04:36:01.575Z,4.17
2023-06-06T04:38:31.007Z,4.37
2023-06-06T04:41:31.499Z,3.80
2023-06-06T04:43:52.701Z,4.13
2023-06-06T04:46:23.279Z,4.60
2023-06-06T04:48:54.641Z,4.00
2023-06-06T04:51:23.364Z,3.93
2023-06-06T04:53:54.531Z,3.80
2023-06-06T04:56:21.779Z,3.70
2023-06-06T04:58:49.895Z,3.80
2023-06-06T05:01:17.247Z,3.40
2023-06-06T05:03:44.274Z,3.83
2023-06-06T05:06:13.365Z,3.73
2023-06-06T05:08:45.672Z,3.77
2023-06-06T05:11:12.989Z,3.60
2023-06-06T05:13:40.321Z,3.37
2023-06-06T05:16:08.922Z,3.43
2023-06-06T05:18:37.068Z,3.10
2023-06-06T05:21:05.349Z,2.80
2023-06-06T05:23:32.645Z,3.60
2023-06-06T05:25:59.632Z,3.40
2023-06-06T05:28:27.675Z,3.13
2023-06-06T05:30:54.543Z,3.43
2023-06-06T05:33:21.521Z,3.40
2023-06-06T05:35:50.972Z,3.00
2023-06-06T05:38:20.407Z,3.10
2023-06-06T05:40:49.366Z,2.90
2023-06-06T05:43:17.230Z,3.00
2023-06-06T05:45:46.556Z,2.67
2023-06-06T05:48:13.568Z,3.80
2023-06-06T05:50:41.063Z,3.23
2023-06-06T05:53:07.890Z,3.40
2023-06-06T05:55:35.097Z,3.70
2023-06-06T05:58:02.394Z,3.07
2023-06-06T06:00:30.310Z,3.27
2023-06-06T06:02:58.762Z,2.87
2023-06-06T06:05:29.328Z,3.17
2023-06-06T06:08:00.478Z,2.87
2023-06-06T06:10:32.810Z,2.77
2023-06-06T06:13:02.351Z,3.37
2023-06-06T06:15:32.810Z,3.27
2023-06-06T06:18:00.191Z,2.97
2023-06-06T06:20:29.862Z,3.00
2023-06-06T06:22:56.936Z,2.92
2023-06-06T06:25:25.995Z,2.87
2023-06-06T06:27:52.962Z,2.80
2023-06-06T06:30:21.981Z,2.77
2023-06-06T06:32:52.058Z,2.80
2023-06-06T06:35:18.956Z,2.75
2023-06-06T06:37:47.615Z,2.70
2023-06-06T06:40:19.090Z,2.87
2023-06-06T06:42:46.053Z,2.80
2023-06-06T06:45:20.840Z,3.03
2023-06-06T06:47:47.740Z,2.90
2023-06-06T06:50:20.696Z,2.40
2023-06-06T06:52:47.677Z,2.40
2023-06-06T06:55:14.460Z,2.60
2023-06-06T06:57:49.643Z,2.57
2023-06-06T07:00:20.350Z,2.33
2023-06-06T07:02:47.369Z,2.28
2023-06-06T07:05:17.660Z,2.15
2023-06-06T07:07:51.457Z,2.40
2023-06-06T07:10:23.906Z,2.67
2023-06-06T07:12:52.332Z,2.25
2023-06-06T07:15:22.367Z,2.20
2023-06-06T07:17:52.248Z,2.13
2023-06-06T07:20:21.287Z,2.35
2023-06-06T07:22:48.452Z,2.05
2023-06-06T07:25:15.444Z,1.92
2023-06-06T07:27:44.568Z,2.13
2023-06-06T07:30:15.424Z,1.90
2023-06-06T07:32:45.744Z,1.85
2023-06-06T07:35:16.654Z,2.05
2023-06-06T07:37:43.605Z,2.38
2023-06-06T07:40:12.166Z,1.88
2023-06-06T07:42:40.363Z,1.80
2023-06-06T07:45:09.869Z,1.88
2023-06-06T07:47:36.814Z,1.63
2023-06-06T07:50:04.349Z,1.88
2023-06-06T07:52:33.872Z,2.10
2023-06-06T07:55:00.978Z,1.67
2023-06-06T07:57:28.453Z,2.00
2023-06-06T07:59:55.922Z,1.92
2023-06-06T08:02:23.430Z,2.00
2023-06-06T08:04:50.312Z,1.65
2023-06-06T08:07:17.138Z,1.75
2023-06-06T08:09:44.593Z,1.95
2023-06-06T08:12:12.329Z,1.70
2023-06-06T08:14:39.542Z,1.60
2023-06-06T08:17:06.997Z,1.92
2023-06-06T08:19:34.087Z,2.05
2023-06-06T08:22:03.904Z,1.92
2023-06-06T08:24:30.971Z,1.98
2023-06-06T08:26:58.402Z,1.83
2023-06-06T08:29:25.361Z,1.75
2023-06-06T08:31:53.710Z,1.90
2023-06-06T08:34:21.238Z,1.67
2023-06-06T08:36:49.181Z,1.63
2023-06-06T08:39:19.553Z,1.73
2023-06-06T08:41:49.824Z,1.88
2023-06-06T08:44:17.227Z,1.80
2023-06-06T08:46:45.647Z,1.80
2023-06-06T08:49:12.556Z,1.73
2023-06-06T08:51:39.419Z,2.03
2023-06-06T08:54:06.270Z,2.17
2023-06-06T08:56:33.546Z,1.77
2023-06-06T08:59:00.378Z,1.73
2023-06-06T09:01:27.283Z,2.08
2023-06-06T09:03:54.456Z,1.98
2023-06-06T09:06:22.143Z,2.22
2023-06-06T09:08:51.667Z,2.40
2023-06-06T09:11:18.984Z,2.20
2023-06-06T09:13:46.562Z,1.90
2023-06-06T09:16:18.604Z,2.08
2023-06-06T09:18:49.986Z,1.90
2023-06-06T09:21:16.818Z,1.80
2023-06-06T09:23:43.769Z,2.00
2023-06-06T09:26:20.428Z,2.10
2023-06-06T09:28:47.284Z,2.17
2023-06-06T09:31:27.565Z,2.22
2023-06-06T09:33:55.557Z,1.77
2023-06-06T09:36:28.374Z,1.75
2023-06-06T09:39:14.836Z,1.85
2023-06-06T09:41:46.986Z,2.38
2023-06-06T09:44:21.616Z,1.80
2023-06-06T09:46:51.248Z,1.73
2023-06-06T09:49:18.744Z,1.92
2023-06-06T09:51:45.841Z,1.92
2023-06-06T09:54:12.957Z,1.85
2023-06-06T09:56:45.563Z,1.90
2023-06-06T09:59:12.595Z,2.22
2023-06-06T10:01:39.539Z,1.88
2023-06-06T10:04:06.725Z,2.67
2023-06-06T10:06:38.969Z,1.95
2023-06-06T10:09:06.647Z,1.80
2023-06-06T10:11:37.200Z,1.95
2023-06-06T10:14:09.847Z,2.17
2023-06-06T10:16:36.942Z,1.85
2023-06-06T10:19:06.468Z,1.88
2023-06-06T10:21:33.388Z,2.15
2023-06-06T10:24:00.554Z,2.22
2023-06-06T10:26:32.752Z,1.90
2023-06-06T10:29:12.728Z,1.90
2023-06-06T10:31:55.919Z,2.10
2023-06-06T10:34:33.563Z,1.92
2023-06-06T10:37:15.105Z,1.77
2023-06-06T10:39:59.508Z,1.90
2023-06-06T10:42:42.099Z,1.92
2023-06-06T10:45:09.441Z,2.20
2023-06-06T10:47:41.235Z,2.00
2023-06-06T10:50:14.147Z,1.83
2023-06-06T10:52:57.887Z,2.00
2023-06-06T10:55:25.346Z,1.70
2023-06-06T10:57:56.544Z,1.90
2023-06-06T11:00:28.869Z,1.63
2023-06-06T11:03:01.662Z,1.90
2023-06-06T11:05:30.880Z,1.83
2023-06-06T11:08:02.327Z,2.03
2023-06-06T11:10:46.204Z,1.95
2023-06-06T11:13:26.896Z,2.13
2023-06-06T11:15:57.734Z,2.17
2023-06-06T11:18:37.757Z,1.98
2023-06-06T11:21:07.099Z,2.25
2023-06-06T11:23:43.340Z,1.77
2023-06-06T11:26:11.330Z,2.08
2023-06-06T11:28:41.336Z,2.28
2023-06-06T11:31:08.844Z,1.70
2023-06-06T11:33:37.581Z,2.33
2023-06-06T11:36:05.001Z,1.90
2023-06-06T11:38:33.732Z,2.08
2023-06-06T11:41:07.245Z,2.25
2023-06-06T11:43:34.123Z,1.80
2023-06-06T11:46:07.532Z,2.10
2023-06-06T11:48:36.908Z,1.80
2023-06-06T11:51:16.206Z,2.30
2023-06-06T11:53:43.126Z,1.52
2023-06-06T11:56:20.658Z,2.17
2023-06-06T11:58:47.560Z,2.25
2023-06-06T12:01:16.344Z,1.90
2023-06-06T12:03:44.632Z,2.35
2023-06-06T12:06:11.775Z,2.13
2023-06-06T12:08:39.225Z,2.33
2023-06-06T12:11:25.293Z,2.08
2023-06-06T12:13:55.211Z,2.33
2023-06-06T12:16:26.402Z,2.30
2023-06-06T12:18:53.364Z,1.95
2023-06-06T12:21:20.216Z,2.08
2023-06-06T12:23:47.537Z,2.17
2023-06-06T12:26:17.914Z,2.00
2023-06-06T12:29:01.208Z,2.15
2023-06-06T12:31:31.466Z,1.90
2023-06-06T12:33:58.689Z,2.35
2023-06-06T12:36:26.848Z,2.25
2023-06-06T12:39:09.154Z,2.15
2023-06-06T12:41:42.342Z,2.15
2023-06-06T12:44:10.499Z,2.30
2023-06-06T12:46:37.972Z,2.28
2023-06-06T12:49:05.023Z,2.10
2023-06-06T12:51:35.443Z,2.03
2023-06-06T12:54:05.386Z,2.22
2023-06-06T12:56:32.331Z,2.17
2023-06-06T12:59:00.737Z,2.10
2023-06-06T13:01:32.834Z,1.90
2023-06-06T13:04:00.012Z,1.98
2023-06-06T13:06:27.278Z,2.47
2023-06-06T13:08:56.412Z,2.22
2023-06-06T13:11:23.687Z,2.22
2023-06-06T13:13:50.659Z,2.20
2023-06-06T13:16:17.788Z,2.20
2023-06-06T13:18:45.019Z,2.00
2023-06-06T13:21:12.176Z,2.10
2023-06-06T13:23:39.211Z,2.30
2023-06-06T13:26:06.142Z,2.25
2023-06-06T13:28:35.536Z,2.10
2023-06-06T13:31:04.644Z,2.20
2023-06-06T13:33:34.068Z,2.35
2023-06-06T13:36:01.083Z,2.17
2023-06-06T13:38:30.700Z,2.10
2023-06-06T13:40:57.567Z,2.60
2023-06-06T13:43:24.753Z,2.20
2023-06-06T13:45:51.695Z,2.15
2023-06-06T13:48:18.548Z,2.33
2023-06-06T13:50:45.457Z,2.50
2023-06-06T13:53:15.688Z,2.65
2023-06-06T13:55:42.540Z,2.22
2023-06-06T13:58:10.169Z,2.15
2023-06-06T14:00:38.098Z,2.30
2023-06-06T14:03:07.465Z,2.35
2023-06-06T14:05:36.628Z,2.25
2023-06-06T14:08:03.701Z,2.08
2023-06-06T14:10:30.507Z,2.40
2023-06-06T14:12:59.655Z,2.17
2023-06-06T14:15:26.525Z,2.28
2023-06-06T14:17:56.583Z,2.30
2023-06-06T14:20:33.552Z,2.35
2023-06-06T14:23:00.398Z,2.30
2023-06-06T14:25:32.957Z,2.17
2023-06-06T14:28:02.059Z,2.38
2023-06-06T14:30:28.877Z,2.33
2023-06-06T14:32:57.834Z,2.40
2023-06-06T14:35:29.214Z,2.33
2023-06-06T14:37:56.071Z,2.25
2023-06-06T14:40:22.909Z,2.13
2023-06-06T14:42:49.685Z,2.40
2023-06-06T14:45:18.740Z,2.40
2023-06-06T14:47:47.769Z,2.42
2023-06-06T14:50:15.708Z,2.55
2023-06-06T14:52:42.563Z,2.25
2023-06-06T14:55:09.550Z,2.45
2023-06-06T14:57:36.679Z,2.20
2023-06-06T15:00:04.224Z,2.97
2023-06-06T15:02:31.167Z,2.38
2023-06-06T15:04:58.822Z,2.60
2023-06-06T15:07:28.115Z,2.33
2023-06-06T15:09:57.683Z,2.40
2023-06-06T15:12:26.651Z,2.40
2023-06-06T15:14:53.525Z,2.90
2023-06-06T15:17:20.947Z,2.67
2023-06-06T15:19:47.841Z,2.63
2023-06-06T15:22:16.796Z,2.65
2023-06-06T15:24:46.304Z,2.70
2023-06-06T15:27:13.214Z,2.58
2023-06-06T15:29:44.833Z,2.67
2023-06-06T15:32:14.242Z,2.63
2023-06-06T15:34:43.652Z,2.33
2023-06-06T15:37:12.938Z,2.40
2023-06-06T15:39:45.539Z,2.58
2023-06-06T15:42:14.928Z,2.67
2023-06-06T15:44:42.668Z,2.63
2023-06-06T15:47:10.907Z,2.78
2023-06-06T15:49:40.221Z,2.50
2023-06-06T15:52:07.447Z,2.80
2023-06-06T15:54:34.253Z,2.70
2023-06-06T15:57:01.037Z,3.05
2023-06-06T15:59:29.549Z,2.78
2023-06-06T16:01:56.598Z,2.80
2023-06-06T16:04:27.065Z,2.90
2023-06-06T16:06:54.088Z,3.30
2023-06-06T16:09:21.668Z,2.70
2023-06-06T16:11:48.489Z,2.58
2023-06-06T16:14:15.739Z,2.70
2023-06-06T16:16:45.911Z,2.80
2023-06-06T16:19:19.116Z,3.08
2023-06-06T16:21:46.573Z,2.78
2023-06-06T16:24:19.757Z,2.70
2023-06-06T16:26:51.478Z,2.35
2023-06-06T16:29:27.406Z,2.70
2023-06-06T16:31:54.661Z,2.95
2023-06-06T16:34:21.576Z,2.58
2023-06-06T16:36:52.703Z,2.88
2023-06-06T16:39:19.959Z,2.67
2023-06-06T16:41:49.247Z,2.83
2023-06-06T16:44:18.901Z,3.08
2023-06-06T16:46:47.941Z,2.58
2023-06-06T16:49:14.810Z,2.80
2023-06-06T16:51:44.228Z,2.95
2023-06-06T16:54:13.674Z,3.08
2023-06-06T16:56:42.070Z,2.80
2023-06-06T16:59:11.907Z,2.60
2023-06-06T17:01:41.139Z,3.10
2023-06-06T17:04:08.168Z,2.85
2023-06-06T17:06:38.462Z,2.92
2023-06-06T17:09:07.682Z,2.95
2023-06-06T17:11:34.533Z,3.30
2023-06-06T17:14:03.976Z,2.90
2023-06-06T17:16:33.644Z,3.20
2023-06-06T17:19:00.994Z,3.50
2023-06-06T17:21:27.833Z,3.20
2023-06-06T17:23:57.414Z,2.70
2023-06-06T17:26:24.323Z,3.03
2023-06-06T17:28:53.339Z,2.90
2023-06-06T17:31:20.288Z,3.22
2023-06-06T17:33:47.171Z,2.75
2023-06-06T17:36:16.936Z,3.15
2023-06-06T17:38:44.154Z,2.78
2023-06-06T17:41:11.594Z,2.80
2023-06-06T17:43:38.487Z,3.13
2023-06-06T17:46:05.317Z,3.08
2023-06-06T17:48:34.613Z,3.35
2023-06-06T17:51:04.261Z,3.17
2023-06-06T17:53:32.781Z,2.83
2023-06-06T17:56:00.204Z,3.10
2023-06-06T17:58:28.066Z,3.20
2023-06-06T18:00:57.016Z,3.15
2023-06-06T18:03:23.959Z,2.88
2023-06-06T18:05:50.883Z,2.78
2023-06-06T18:08:18.751Z,2.70
2023-06-06T18:10:45.608Z,3.28
2023-06-06T18:13:13.230Z,3.30
2023-06-06T18:15:44.257Z,3.30
2023-06-06T18:18:13.674Z,3.78
2023-06-06T18:20:40.558Z,3.10
2023-06-06T18:23:09.515Z,3.80
2023-06-06T18:25:36.390Z,3.50
2023-06-06T18:28:04.388Z,3.38
2023-06-06T18:30:33.384Z,3.65
2023-06-06T18:33:00.274Z,5.00
2023-06-06T18:35:31.504Z,3.70
2023-06-06T18:37:58.658Z,3.67
2023-06-06T18:40:30.339Z,3.83
2023-06-06T18:42:57.142Z,3.75
2023-06-06T18:45:23.991Z,4.00
2023-06-06T18:47:57.547Z,3.97
2023-06-06T18:50:27.038Z,4.20
2023-06-06T18:52:56.733Z,3.78
2023-06-06T18:55:23.806Z,3.67
2023-06-06T18:57:53.181Z,3.38
2023-06-06T19:00:20.194Z,3.78
2023-06-06T19:02:51.833Z,3.47
2023-06-06T19:05:18.692Z,4.00
2023-06-06T19:07:47.732Z,3.75
2023-06-06T19:10:14.560Z,4.00
2023-06-06T19:15:13.945Z,3.35
2023-06-06T19:17:40.944Z,4.10
2023-06-06T19:20:09.990Z,4.80
2023-06-06T19:22:39.196Z,3.42
2023-06-06T19:25:08.789Z,4.07
2023-06-06T19:27:35.973Z,4.35
2023-06-06T19:30:03.643Z,3.97
2023-06-06T19:32:31.062Z,3.50
2023-06-06T19:34:58.011Z,3.78
2023-06-06T19:37:24.818Z,4.55
2023-06-06T19:39:53.625Z,4.57
2023-06-06T19:42:23.154Z,3.80
2023-06-06T19:44:50.007Z,4.50
2023-06-06T19:47:17.018Z,4.07
2023-06-06T19:49:43.954Z,4.00
2023-06-06T19:52:15.041Z,4.50
2023-06-06T19:54:41.972Z,3.90
2023-06-06T19:57:11.246Z,4.35
2023-06-06T19:59:40.226Z,3.97
2023-06-06T20:02:09.001Z,4.40
2023-06-06T20:04:35.874Z,4.15
2023-06-06T20:07:04.983Z,4.22
2023-06-06T20:09:31.787Z,4.80
2023-06-06T20:11:58.597Z,4.55
2023-06-06T20:14:25.454Z,4.63
2023-06-06T20:16:54.368Z,8.05
2023-06-06T20:19:23.810Z,5.20
2023-06-06T20:21:50.687Z,5.30
2023-06-06T20:24:17.473Z,4.50
2023-06-06T20:26:44.272Z,4.55
2023-06-06T20:29:11.131Z,5.22
2023-06-06T20:31:38.064Z,4.65
2023-06-06T20:34:04.977Z,4.80
2023-06-06T20:36:33.286Z,4.53
2023-06-06T20:39:04.878Z,4.65
2023-06-06T20:41:31.692Z,4.70
2023-06-06T20:44:01.609Z,4.68
2023-06-06T20:46:28.456Z,5.28
2023-06-06T20:48:57.419Z,5.97
2023-06-06T20:51:24.262Z,4.93
2023-06-06T20:53:55.684Z,4.93
2023-06-06T20:56:25.043Z,4.55
2023-06-06T20:58:52.037Z,4.88
2023-06-06T21:01:21.353Z,4.93
2023-06-06T21:03:48.204Z,4.78
2023-06-06T21:06:15.338Z,4.57
2023-06-06T21:08:42.263Z,5.25
2023-06-06T21:11:10.961Z,5.40
2023-06-06T21:13:37.757Z,4.97
2023-06-06T21:16:05.105Z,5.15
2023-06-06T21:18:31.999Z,4.60
2023-06-06T21:20:58.799Z,4.90
2023-06-06T21:23:26.618Z,4.85
2023-06-06T21:25:55.539Z,4.85
2023-06-06T21:28:24.870Z,5.15
2023-06-06T21:30:52.669Z,5.70
2023-06-06T21:33:19.560Z,4.80
2023-06-06T21:35:46.509Z,5.40
2023-06-06T21:38:13.324Z,5.18
2023-06-06T21:40:44.017Z,5.30
2023-06-06T21:43:11.026Z,5.28
2023-06-06T21:45:40.030Z,5.93
2023-06-06T21:48:07.056Z,5.32
2023-06-06T21:50:36.113Z,5.43
2023-06-06T21:53:05.235Z,4.82
2023-06-06T21:55:32.019Z,5.30
2023-06-06T21:58:01.355Z,5.38
2023-06-06T22:00:29.352Z,5.22
2023-06-06T22:02:58.928Z,5.47
2023-06-06T22:05:25.998Z,5.15
2023-06-06T22:07:52.816Z,5.07
2023-06-06T22:10:19.680Z,5.00
2023-06-06T22:12:46.598Z,5.30
2023-06-06T22:15:13.466Z,5.32
2023-06-06T22:17:40.354Z,5.35
2023-06-06T22:20:07.993Z,5.68
2023-06-06T22:22:37.136Z,5.20
2023-06-06T22:25:04.078Z,5.55
2023-06-06T22:27:31.270Z,5.28
2023-06-06T22:30:00.964Z,4.82
2023-06-06T22:32:30.244Z,5.50
2023-06-06T22:34:57.057Z,4.63
2023-06-06T22:37:26.176Z,5.03
2023-06-06T22:39:53.108Z,4.85
2023-06-06T22:42:21.458Z,5.10
2023-06-06T22:44:48.370Z,4.82
2023-06-06T22:47:15.166Z,4.97
2023-06-06T22:49:44.442Z,5.05
2023-06-06T22:52:13.151Z,5.25
2023-06-06T22:54:42.465Z,5.57
2023-06-06T22:57:09.315Z,5.75
2023-06-06T22:59:36.141Z,6.15
2023-06-06T23:02:02.943Z,4.88
2023-06-06T23:04:29.835Z,5.10
2023-06-06T23:06:57.011Z,5.63
2023-06-06T23:09:26.438Z,5.05
2023-06-06T23:11:54.777Z,5.18
2023-06-06T23:14:21.943Z,4.90
2023-06-06T23:16:53.703Z,6.28
2023-06-06T23:19:22.873Z,5.90
2023-06-06T23:21:54.046Z,5.32
2023-06-06T23:24:20.890Z,5.20
2023-06-06T23:26:47.706Z,5.60
2023-06-06T23:29:14.966Z,5.63
2023-06-06T23:31:42.321Z,5.85
2023-06-06T23:34:09.192Z,5.40
2023-06-06T23:36:38.870Z,5.60
2023-06-06T23:39:06.108Z,5.13
2023-06-06T23:41:37.638Z,5.88
2023-06-06T23:44:04.667Z,5.70
2023-06-06T23:46:33.771Z,5.90
2023-06-06T23:49:00.630Z,6.13
2023-06-06T23:51:28.386Z,5.97
2023-06-06T23:53:58.003Z,5.60
2023-06-06T23:56:24.787Z,6.23
2023-06-06T23:58:51.608Z,5.90
